Time;durP1;ratioP1;P1;durP2;ratioP2;P2;SDS_P1;SDS_P2;PMS_P1;PMS_P2;Temp;Humidity;BMP_temperature;BMP_pressure;BME280_temperature;BME280_humidity;BME280_pressure;Samples;Min_cycle;Max_cycle;Signal;HPM_P1;HPM_P2
2023/05/01 00:00:04;;;;;;;3.80;1.33;;;20.00;73.00;;;;;;5032528;28;20021;-67
2023/05/01 00:02:30;;;;;;;3.13;1.38;;;20.00;73.20;;;;;;5032430;28;20435;-67
2023/05/01 00:04:55;;;;;;;1.75;1.02;;;20.00;73.30;;;;;;5031446;28;20056;-67
2023/05/01 00:07:21;;;;;;;1.45;1.17;;;20.00;73.40;;;;;;5031097;28;20029;-67
2023/05/01 00:09:47;;;;;;;1.95;1.20;;;20.00;73.40;;;;;;5031322;28;20025;-67
2023/05/01 00:12:13;;;;;;;4.13;1.20;;;19.90;73.30;;;;;;5031019;28;20031;-67
2023/05/01 00:14:38;;;;;;;2.33;1.00;;;19.90;73.60;;;;;;5032370;28;20519;-67
2023/05/01 00:17:05;;;;;;;2.35;1.10;;;19.90;73.40;;;;;;5032047;28;20447;-67
2023/05/01 00:19:30;;;;;;;2.72;1.27;;;19.90;73.50;;;;;;5031054;28;20022;-67
2023/05/01 00:21:56;;;;;;;1.25;1.05;;;19.90;73.80;;;;;;5032018;28;20018;-67
2023/05/01 00:24:22;;;;;;;2.00;1.17;;;19.90;73.90;;;;;;5032191;28;20018;-67
2023/05/01 00:26:48;;;;;;;2.47;1.30;;;19.90;73.90;;;;;;5032267;28;20033;-67
2023/05/01 00:29:14;;;;;;;1.75;1.10;;;19.90;73.90;;;;;;5031031;28;20078;-67
2023/05/01 00:31:44;;;;;;;1.48;0.95;;;19.80;74.00;;;;;;5030935;28;20108;-67
2023/05/01 00:34:10;;;;;;;1.38;1.13;;;19.90;74.30;;;;;;5032909;28;20028;-67
2023/05/01 00:36:36;;;;;;;1.77;0.93;;;19.90;74.10;;;;;;5036029;28;20029;-67
2023/05/01 00:39:01;;;;;;;1.85;1.20;;;19.90;74.20;;;;;;5035032;28;20029;-67
2023/05/01 00:41:27;;;;;;;3.30;1.48;;;19.80;74.20;;;;;;5035878;28;20033;-67
2023/05/01 00:43:53;;;;;;;1.80;1.08;;;19.80;74.50;;;;;;5035957;28;20068;-67
2023/05/01 00:46:18;;;;;;;1.17;1.08;;;19.80;74.60;;;;;;5035630;28;20056;-67
2023/05/01 00:48:44;;;;;;;1.20;1.10;;;19.80;74.60;;;;;;5034692;28;20021;-67
2023/05/01 00:51:10;;;;;;;2.00;1.30;;;19.80;74.50;;;;;;5034872;28;20041;-66
2023/05/01 00:53:35;;;;;;;2.72;1.52;;;19.80;74.70;;;;;;5018175;28;20036;-67
2023/05/01 00:56:01;;;;;;;4.95;1.80;;;19.80;74.70;;;;;;5034324;28;20025;-67
2023/05/01 00:58:28;;;;;;;1.77;1.27;;;19.80;74.60;;;;;;5035616;28;20026;-67
2023/05/01 01:00:54;;;;;;;1.90;1.23;;;19.80;74.70;;;;;;5018175;28;20025;-67
2023/05/01 01:03:20;;;;;;;1.27;1.15;;;19.70;74.70;;;;;;5035623;28;20496;-67
2023/05/01 01:06:18;;;;;;;2.72;1.58;;;19.70;74.70;;;;;;5035772;28;20036;-67
2023/05/01 01:09:25;;;;;;;1.38;1.10;;;19.70;74.90;;;;;;5039885;28;20068;-67
2023/05/01 01:12:09;;;;;;;4.07;1.75;;;19.70;74.90;;;;;;5052433;28;20045;-67
2023/05/01 01:14:48;;;;;;;2.30;1.38;;;19.70;74.90;;;;;;5052862;28;20033;-67
2023/05/01 01:17:33;;;;;;;1.65;1.25;;;19.70;74.70;;;;;;5053198;28;20033;-67
2023/05/01 01:20:05;;;;;;;1.58;1.10;;;19.70;74.90;;;;;;5033311;28;20116;-67
2023/05/01 01:22:31;;;;;;;2.63;1.40;;;19.70;75.20;;;;;;5033175;28;20064;-67
2023/05/01 01:25:15;;;;;;;3.85;1.48;;;19.70;75.00;;;;;;5016743;28;20061;-67
2023/05/01 01:28:11;;;;;;;3.00;1.35;;;19.70;75.00;;;;;;5033059;28;20029;-67
2023/05/01 01:30:57;;;;;;;4.03;1.02;;;19.70;75.00;;;;;;5032988;28;20551;-67
2023/05/01 01:33:53;;;;;;;2.08;1.40;;;19.70;75.20;;;;;;5032859;28;20041;-67
2023/05/01 01:36:21;;;;;;;3.03;1.30;;;19.70;75.20;;;;;;5032937;28;20068;-67
2023/05/01 01:39:12;;;;;;;3.10;1.27;;;19.70;75.20;;;;;;5032940;28;20043;-66
2023/05/01 01:41:38;;;;;;;1.95;1.05;;;19.70;75.20;;;;;;4968024;28;20086;-67
2023/05/01 01:44:11;;;;;;;1.67;1.40;;;19.70;75.30;;;;;;4970423;28;20035;-67
2023/05/01 01:46:38;;;;;;;4.88;1.65;;;19.70;75.30;;;;;;4939355;28;20046;-67
2023/05/01 01:49:10;;;;;;;2.88;1.20;;;19.70;75.50;;;;;;4935384;29;20030;-67
2023/05/01 01:51:36;;;;;;;;;;;19.60;75.40;;;;;;4935488;29;20426;-67
2023/05/01 01:54:02;;;;;;;1.83;1.20;;;19.60;75.40;;;;;;4919614;29;19906;-66
2023/05/01 01:56:28;;;;;;;3.92;1.50;;;19.60;75.50;;;;;;4950945;29;20074;-66
2023/05/01 01:58:53;;;;;;;1.75;1.25;;;19.60;75.40;;;;;;4935125;29;20043;-67
2023/05/01 02:01:19;;;;;;;3.80;1.30;;;19.60;75.60;;;;;;4951227;29;20032;-66
2023/05/01 02:03:45;;;;;;;2.15;1.27;;;19.60;75.50;;;;;;4935197;29;20047;-67
2023/05/01 02:06:11;;;;;;;3.17;1.20;;;19.60;75.50;;;;;;4935192;29;20038;-67
2023/05/01 02:08:37;;;;;;;3.42;1.38;;;19.60;75.50;;;;;;4934990;29;20071;-67
2023/05/01 02:11:03;;;;;;;3.13;1.30;;;19.60;75.50;;;;;;4936114;28;20070;-67
2023/05/01 02:13:29;;;;;;;5.72;1.42;;;19.60;75.60;;;;;;4937936;29;20129;-67
2023/05/01 02:15:58;;;;;;;2.20;1.40;;;19.60;75.50;;;;;;4938415;29;20119;-66
2023/05/01 02:18:25;;;;;;;1.75;1.13;;;19.60;75.70;;;;;;4963787;28;20409;-67
2023/05/01 02:20:51;;;;;;;1.75;1.13;;;19.60;75.60;;;;;;5013322;28;20032;-67
2023/05/01 02:23:16;;;;;;;2.55;1.30;;;19.60;75.70;;;;;;5013115;28;20026;-67
2023/05/01 02:25:42;;;;;;;1.58;1.20;;;19.50;75.70;;;;;;5013343;28;20022;-67
2023/05/01 02:28:11;;;;;;;2.00;1.05;;;19.60;76.70;;;;;;5012957;28;20061;-67
2023/05/01 02:30:37;;;;;;;2.15;1.40;;;19.50;75.70;;;;;;5013145;28;20519;-66
2023/05/01 02:33:05;;;;;;;2.28;1.58;;;19.50;75.70;;;;;;5013102;28;20029;-66
2023/05/01 02:35:31;;;;;;;2.85;1.23;;;19.50;75.80;;;;;;5012932;28;20032;-66
2023/05/01 02:37:56;;;;;;;2.10;1.55;;;19.50;75.70;;;;;;5014074;28;20113;-67
2023/05/01 02:40:22;;;;;;;1.83;1.50;;;19.50;76.00;;;;;;5014217;28;20044;-66
2023/05/01 02:42:47;;;;;;;2.97;1.42;;;19.50;76.00;;;;;;5012504;28;20073;-67
2023/05/01 02:45:21;;;;;;;2.10;1.25;;;19.50;75.90;;;;;;5014019;28;20018;-67
2023/05/01 02:47:49;;;;;;;3.25;1.85;;;19.50;75.90;;;;;;5012867;28;20026;-66
2023/05/01 02:50:15;;;;;;;3.72;1.48;;;19.50;76.00;;;;;;5012733;28;20021;-67
2023/05/01 02:52:40;;;;;;;4.80;1.73;;;19.50;76.20;;;;;;5013642;28;20052;-66
2023/05/01 02:55:07;;;;;;;3.60;1.17;;;19.50;76.20;;;;;;5012599;28;20036;-67
2023/05/01 02:57:33;;;;;;;3.38;1.30;;;19.50;76.10;;;;;;5013371;28;20049;-67
2023/05/01 02:59:59;;;;;;;3.90;1.45;;;19.50;76.10;;;;;;5012684;28;20025;-67
2023/05/01 03:02:24;;;;;;;2.00;1.08;;;19.50;76.40;;;;;;5013687;28;20026;-67
2023/05/01 03:04:50;;;;;;;3.83;1.33;;;19.50;76.40;;;;;;5013562;28;20080;-67
2023/05/01 03:07:16;;;;;;;2.08;1.30;;;19.50;76.40;;;;;;5013699;28;20075;-67
2023/05/01 03:09:42;;;;;;;1.65;1.33;;;19.50;76.40;;;;;;5013431;28;20075;-66
2023/05/01 03:12:07;;;;;;;2.78;1.60;;;19.50;76.50;;;;;;5023570;28;20120;-67
2023/05/01 03:14:33;;;;;;;1.42;1.27;;;19.50;76.40;;;;;;5032054;28;20025;-67
2023/05/01 03:16:59;;;;;;;1.73;1.23;;;19.50;76.50;;;;;;5033328;28;20037;-67
2023/05/01 03:19:25;;;;;;;2.05;1.33;;;19.50;76.50;;;;;;5031636;28;20021;-67
2023/05/01 03:21:50;;;;;;;1.48;1.30;;;19.40;76.50;;;;;;5033131;28;20468;-67
2023/05/01 03:24:16;;;;;;;2.40;1.33;;;19.40;76.70;;;;;;5032896;28;20044;-66
2023/05/01 03:26:42;;;;;;;3.53;1.58;;;19.40;76.80;;;;;;5032925;28;20435;-66
2023/05/01 03:29:08;;;;;;;2.15;1.20;;;19.40;76.70;;;;;;5033017;28;20021;-66
2023/05/01 03:31:34;;;;;;;1.30;1.10;;;19.40;76.70;;;;;;5031564;28;20017;-67
2023/05/01 03:34:00;;;;;;;3.92;1.40;;;19.40;76.80;;;;;;5032899;28;20017;-66
2023/05/01 03:36:26;;;;;;;2.10;1.27;;;19.40;76.80;;;;;;5032861;28;20088;-67
2023/05/01 03:38:52;;;;;;;3.22;1.38;;;19.40;76.80;;;;;;5032755;28;20056;-67
2023/05/01 03:41:17;;;;;;;2.13;1.17;;;19.40;76.80;;;;;;5032727;28;20057;-67
2023/05/01 03:43:43;;;;;;;4.40;1.80;;;19.40;76.80;;;;;;5032602;28;20045;-67
2023/05/01 03:46:08;;;;;;;3.65;1.45;;;19.40;76.90;;;;;;5032668;28;20052;-66
2023/05/01 03:48:34;;;;;;;3.22;1.30;;;19.40;76.90;;;;;;5032492;28;20436;-67
2023/05/01 03:51:00;;;;;;;1.90;1.38;;;19.40;77.00;;;;;;5032900;28;20453;-67
2023/05/01 03:53:26;;;;;;;1.45;1.27;;;19.40;77.00;;;;;;5032241;28;20026;-66
2023/05/01 03:55:51;;;;;;;2.03;1.08;;;19.40;77.00;;;;;;5031024;28;20079;-67
2023/05/01 03:58:17;;;;;;;1.85;1.25;;;19.40;77.10;;;;;;5032546;28;20037;-67
2023/05/01 04:00:43;;;;;;;3.85;1.30;;;19.40;77.00;;;;;;5032330;28;20484;-67
2023/05/01 04:03:08;;;;;;;3.33;1.35;;;19.40;77.10;;;;;;5031333;28;20056;-67
2023/05/01 04:05:34;;;;;;;4.95;1.35;;;19.40;77.10;;;;;;5032355;28;20030;-67
2023/05/01 04:08:00;;;;;;;1.60;1.20;;;19.40;77.00;;;;;;5014645;28;20033;-66
2023/05/01 04:10:26;;;;;;;1.95;1.58;;;19.40;77.20;;;;;;5031954;28;20037;-67
2023/05/01 04:12:51;;;;;;;1.90;1.27;;;19.40;77.10;;;;;;5032095;28;20060;-66
2023/05/01 04:15:17;;;;;;;2.22;1.40;;;19.30;77.10;;;;;;5032496;28;20025;-66
2023/05/01 04:17:43;;;;;;;4.22;1.83;;;19.30;77.00;;;;;;5032299;28;20057;-67
2023/05/01 04:20:09;;;;;;;3.50;1.83;;;19.30;77.20;;;;;;5032079;28;20033;-67
2023/05/01 04:22:35;;;;;;;3.20;1.65;;;19.30;77.00;;;;;;5030649;28;20018;-67
2023/05/01 04:25:01;;;;;;;3.30;0.93;;;19.30;77.20;;;;;;5031146;28;20613;-67
2023/05/01 04:27:26;;;;;;;2.80;1.52;;;19.30;77.20;;;;;;5032171;28;20100;-66
2023/05/01 04:29:52;;;;;;;2.53;1.48;;;19.30;77.20;;;;;;5032178;28;20030;-66
2023/05/01 04:32:18;;;;;;;3.08;1.10;;;19.30;77.40;;;;;;5032087;28;20499;-66
2023/05/01 04:34:43;;;;;;;2.65;1.20;;;19.30;77.40;;;;;;5032096;28;20555;-67
2023/05/01 04:37:09;;;;;;;2.55;1.45;;;19.30;77.30;;;;;;5031827;28;20029;-67
2023/05/01 04:39:35;;;;;;;2.15;1.30;;;19.30;77.30;;;;;;5031014;28;20044;-66
2023/05/01 04:42:02;;;;;;;3.13;1.45;;;19.30;77.50;;;;;;5032090;28;20068;-67
2023/05/01 04:44:27;;;;;;;2.60;1.20;;;19.30;77.50;;;;;;5030770;28;20042;-67
2023/05/01 04:46:53;;;;;;;3.33;1.20;;;19.30;77.30;;;;;;5032188;28;20471;-67
2023/05/01 04:49:23;;;;;;;2.53;1.45;;;19.30;77.50;;;;;;5032052;28;20523;-67
2023/05/01 04:51:49;;;;;;;2.25;1.15;;;19.30;77.60;;;;;;5031828;28;20056;-67
2023/05/01 04:54:15;;;;;;;6.78;1.58;;;19.30;77.70;;;;;;5030861;28;20026;-67
2023/05/01 04:56:40;;;;;;;1.30;1.20;;;19.30;77.60;;;;;;5031479;28;20577;-67
2023/05/01 04:59:06;;;;;;;1.98;1.38;;;19.30;77.80;;;;;;5032069;28;20022;-67
2023/05/01 05:01:32;;;;;;;2.67;1.48;;;19.30;77.60;;;;;;5031845;28;20029;-67
2023/05/01 05:03:57;;;;;;;2.33;1.58;;;19.30;77.80;;;;;;5032041;28;20014;-67
2023/05/01 05:06:23;;;;;;;4.97;1.42;;;19.30;77.90;;;;;;5031713;28;20030;-67
2023/05/01 05:08:52;;;;;;;1.52;1.17;;;19.30;77.80;;;;;;5031707;28;20021;-67
2023/05/01 05:11:18;;;;;;;2.75;1.13;;;19.30;77.90;;;;;;5028236;28;20033;-67
2023/05/01 05:13:44;;;;;;;4.38;1.35;;;19.30;78.00;;;;;;5019404;28;20109;-67
2023/05/01 05:16:10;;;;;;;4.07;1.40;;;19.30;78.10;;;;;;5012611;28;20022;-67
2023/05/01 05:18:37;;;;;;;1.58;1.13;;;19.30;78.20;;;;;;5017680;28;20480;-67
2023/05/01 05:21:04;;;;;;;4.22;1.48;;;19.30;78.30;;;;;;5031280;28;20424;-67
2023/05/01 05:23:30;;;;;;;5.43;1.48;;;19.30;78.20;;;;;;5035603;28;20103;-67
2023/05/01 05:25:57;;;;;;;4.03;1.52;;;19.30;78.30;;;;;;5035419;28;20053;-67
2023/05/01 05:28:22;;;;;;;2.90;1.45;;;19.30;78.20;;;;;;5035902;28;20021;-67
2023/05/01 05:30:48;;;;;;;2.80;1.48;;;19.20;78.20;;;;;;5035554;28;20060;-67
2023/05/01 05:33:14;;;;;;;2.80;1.10;;;19.20;78.20;;;;;;5035632;28;20021;-67
2023/05/01 05:35:39;;;;;;;4.95;1.30;;;19.20;78.20;;;;;;5035473;28;20084;-67
2023/05/01 05:38:05;;;;;;;2.50;1.55;;;19.20;78.20;;;;;;5035515;28;20047;-66
2023/05/01 05:40:31;;;;;;;2.88;1.30;;;19.30;78.30;;;;;;5035663;28;20139;-66
2023/05/01 05:42:57;;;;;;;4.95;1.65;;;19.20;78.20;;;;;;5035395;28;20023;-67
2023/05/01 05:45:23;;;;;;;3.88;1.38;;;19.20;78.40;;;;;;5035533;28;20087;-67
2023/05/01 05:47:48;;;;;;;3.40;1.25;;;19.20;78.40;;;;;;5035416;28;20542;-67
2023/05/01 05:50:14;;;;;;;2.05;1.27;;;19.20;78.40;;;;;;5034993;28;20025;-66
2023/05/01 05:52:40;;;;;;;2.58;1.23;;;19.20;78.40;;;;;;5035286;28;20025;-66
2023/05/01 05:55:06;;;;;;;2.85;1.17;;;19.20;78.40;;;;;;5035207;28;20030;-67
2023/05/01 05:57:35;;;;;;;2.30;1.27;;;19.20;78.40;;;;;;5034998;28;20125;-67
2023/05/01 06:00:04;;;;;;;4.13;1.40;;;19.20;78.40;;;;;;5035252;28;20096;-66
2023/05/01 06:02:30;;;;;;;4.03;1.65;;;19.20;78.40;;;;;;5035196;28;20080;-67
2023/05/01 06:04:56;;;;;;;2.65;1.35;;;19.20;78.40;;;;;;5034970;28;20017;-67
2023/05/01 06:07:23;;;;;;;2.80;1.27;;;19.20;78.40;;;;;;5028863;28;20120;-67
2023/05/01 06:09:48;;;;;;;2.33;1.45;;;19.20;78.40;;;;;;5023158;28;20029;-67
2023/05/01 06:12:15;;;;;;;3.70;1.50;;;19.20;78.50;;;;;;5025699;28;20037;-67
2023/05/01 06:14:40;;;;;;;3.67;1.45;;;19.20;78.50;;;;;;5034458;28;20045;-67
2023/05/01 06:17:07;;;;;;;2.08;1.30;;;19.20;78.50;;;;;;5034448;28;20516;-67
2023/05/01 06:19:32;;;;;;;2.83;1.30;;;19.20;78.50;;;;;;5033903;28;20163;-66
2023/05/01 06:21:58;;;;;;;2.78;1.42;;;19.20;78.50;;;;;;5033338;28;20105;-67
2023/05/01 06:24:24;;;;;;;1.25;1.15;;;19.20;78.40;;;;;;5034364;28;20514;-67
2023/05/01 06:26:49;;;;;;;1.88;1.20;;;19.20;78.40;;;;;;5034026;28;20048;-67
2023/05/01 06:29:15;;;;;;;6.60;1.58;;;19.20;78.40;;;;;;5034158;28;20438;-67
2023/05/01 06:31:41;;;;;;;3.92;1.52;;;19.20;78.40;;;;;;5033744;28;20025;-67
2023/05/01 06:34:06;;;;;;;1.92;1.30;;;19.20;78.50;;;;;;5033751;28;20029;-67
2023/05/01 06:36:32;;;;;;;3.10;1.35;;;19.20;78.40;;;;;;5032797;28;20503;-67
2023/05/01 06:38:57;;;;;;;1.80;1.35;;;19.20;78.40;;;;;;5033921;28;20036;-67
2023/05/01 06:41:24;;;;;;;4.10;1.35;;;19.20;78.40;;;;;;5033914;28;20064;-67
2023/05/01 06:43:50;;;;;;;2.78;1.52;;;19.20;78.50;;;;;;5032469;28;20021;-67
2023/05/01 06:46:16;;;;;;;2.33;1.10;;;19.20;78.50;;;;;;5033784;28;20021;-67
2023/05/01 06:48:41;;;;;;;3.28;1.40;;;19.20;78.50;;;;;;5033574;28;20041;-67
2023/05/01 06:51:07;;;;;;;2.63;1.15;;;19.20;78.50;;;;;;5033677;28;20448;-67
2023/05/01 06:53:33;;;;;;;2.95;1.40;;;19.20;78.40;;;;;;5026259;28;20493;-67
2023/05/01 06:55:59;;;;;;;2.00;1.42;;;19.20;78.40;;;;;;5021394;28;20075;-67
2023/05/01 06:58:25;;;;;;;1.58;1.40;;;19.20;78.40;;;;;;5014176;28;20033;-66
2023/05/01 07:00:51;;;;;;;4.50;1.63;;;19.10;78.40;;;;;;5014214;28;20147;-67
2023/05/01 07:03:17;;;;;;;2.42;1.20;;;19.20;78.40;;;;;;5014075;28;20022;-67
2023/05/01 07:05:43;;;;;;;2.22;1.40;;;19.10;78.30;;;;;;5014174;28;20084;-67
2023/05/01 07:08:09;;;;;;;1.73;1.30;;;19.10;78.30;;;;;;5014045;28;20030;-66
2023/05/01 07:10:34;;;;;;;2.38;1.40;;;19.10;78.30;;;;;;5013987;28;20026;-67
2023/05/01 07:13:00;;;;;;;2.70;1.33;;;19.10;78.30;;;;;;5030036;28;20083;-66
2023/05/01 07:15:26;;;;;;;2.03;1.20;;;19.20;78.40;;;;;;5033728;28;20480;-67
2023/05/01 07:17:51;;;;;;;1.67;1.30;;;19.10;78.30;;;;;;5033278;28;20033;-67
2023/05/01 07:20:17;;;;;;;3.80;1.40;;;19.20;78.40;;;;;;5033572;28;20025;-67
2023/05/01 07:22:43;;;;;;;5.70;1.40;;;19.10;78.30;;;;;;5032448;28;20021;-67
2023/05/01 07:25:09;;;;;;;3.63;1.45;;;19.20;78.40;;;;;;5033449;28;20029;-66
2023/05/01 07:27:34;;;;;;;3.67;1.23;;;19.10;78.30;;;;;;5033436;28;20048;-67
2023/05/01 07:30:01;;;;;;;3.28;1.35;;;19.10;78.30;;;;;;5033384;28;20491;-67
2023/05/01 07:32:26;;;;;;;2.85;1.30;;;19.20;78.30;;;;;;5033494;28;20030;-66
2023/05/01 07:34:52;;;;;;;2.67;1.40;;;19.10;78.30;;;;;;5033803;28;20029;-66
2023/05/01 07:37:17;;;;;;;3.40;1.55;;;19.10;78.40;;;;;;5026412;28;20060;-67
2023/05/01 07:39:43;;;;;;;2.45;1.20;;;19.10;78.30;;;;;;5013974;28;20432;-67
2023/05/01 07:42:09;;;;;;;2.50;1.60;;;19.10;78.20;;;;;;5012949;28;20356;-66
2023/05/01 07:44:35;;;;;;;3.33;1.48;;;19.10;78.30;;;;;;5012145;28;20097;-67
2023/05/01 07:47:05;;;;;;;2.28;1.27;;;19.10;78.30;;;;;;5012753;28;20022;-67
2023/05/01 07:49:40;;;;;;;3.42;1.20;;;19.10;78.20;;;;;;5011674;28;20014;-67
2023/05/01 07:52:08;;;;;;;4.85;1.50;;;19.10;78.20;;;;;;5012952;28;20498;-67
2023/05/01 07:54:34;;;;;;;4.30;1.40;;;19.10;78.20;;;;;;5012776;28;20022;-67
2023/05/01 07:57:00;;;;;;;5.93;1.70;;;19.10;78.20;;;;;;5011464;28;20049;-67
2023/05/01 07:59:27;;;;;;;3.13;1.30;;;19.10;78.20;;;;;;5012546;28;20022;-67
2023/05/01 08:01:52;;;;;;;1.77;0.98;;;19.10;78.20;;;;;;5012587;28;20428;-67
2023/05/01 08:04:21;;;;;;;4.47;1.38;;;19.10;78.20;;;;;;5012882;28;20079;-67
2023/05/01 08:06:48;;;;;;;2.75;1.50;;;19.10;78.20;;;;;;5012591;28;20048;-67
2023/05/01 08:09:13;;;;;;;2.40;1.20;;;19.10;78.20;;;;;;5011443;28;20022;-67
2023/05/01 08:11:39;;;;;;;2.05;1.20;;;19.00;78.10;;;;;;5018793;28;20075;-67
2023/05/01 08:14:04;;;;;;;2.75;1.33;;;19.10;78.20;;;;;;5031978;28;20025;-67
2023/05/01 08:16:30;;;;;;;2.45;1.25;;;19.10;78.20;;;;;;5032344;28;20013;-67
2023/05/01 08:18:56;;;;;;;2.78;1.45;;;19.10;78.10;;;;;;5030959;28;20399;-67
2023/05/01 08:21:21;;;;;;;2.55;1.50;;;19.10;78.10;;;;;;5032285;28;20025;-67
2023/05/01 08:23:47;;;;;;;4.07;1.30;;;19.10;78.10;;;;;;5032326;28;20030;-67
2023/05/01 08:26:13;;;;;;;3.38;1.25;;;19.10;78.20;;;;;;5030901;28;20074;-66
2023/05/01 08:28:38;;;;;;;3.00;1.45;;;19.00;78.10;;;;;;5032062;28;20484;-67
2023/05/01 08:31:04;;;;;;;7.82;1.45;;;19.00;78.10;;;;;;5032112;28;20108;-67
2023/05/01 08:33:30;;;;;;;1.83;1.15;;;19.00;78.00;;;;;;5032131;28;20459;-67
2023/05/01 08:35:55;;;;;;;4.43;1.70;;;19.00;78.00;;;;;;5030838;28;20411;-67
2023/05/01 08:38:21;;;;;;;6.85;1.80;;;19.00;78.00;;;;;;5032307;28;20075;-67
2023/05/01 08:40:51;;;;;;;2.97;1.55;;;19.00;78.10;;;;;;5032106;28;20408;-67
2023/05/01 08:43:17;;;;;;;2.58;1.30;;;19.00;78.10;;;;;;5030579;28;20032;-67
2023/05/01 08:45:42;;;;;;;2.65;1.48;;;19.00;78.10;;;;;;5030920;28;20026;-67
2023/05/01 08:48:11;;;;;;;3.75;1.55;;;19.00;78.00;;;;;;5014413;28;20079;-68
2023/05/01 08:50:38;;;;;;;1.90;0.90;;;19.00;78.00;;;;;;5030937;28;20392;-67
2023/05/01 08:53:04;;;;;;;4.57;1.60;;;19.00;78.00;;;;;;5014620;28;20029;-67
2023/05/01 08:55:31;;;;;;;2.55;1.58;;;19.00;78.00;;;;;;5032159;28;20075;-67
2023/05/01 08:57:57;;;;;;;4.75;1.77;;;19.00;78.00;;;;;;5035354;28;20041;-67
2023/05/01 09:00:22;;;;;;;3.00;1.25;;;19.00;78.00;;;;;;5034682;28;20400;-66
2023/05/01 09:02:49;;;;;;;3.42;1.15;;;19.00;78.10;;;;;;5018111;28;20510;-66
2023/05/01 09:05:16;;;;;;;3.88;1.15;;;19.00;78.10;;;;;;5035647;28;20013;-67
2023/05/01 09:07:42;;;;;;;4.30;1.58;;;19.00;78.00;;;;;;5034526;28;20045;-66
2023/05/01 09:10:08;;;;;;;3.33;1.40;;;19.00;78.20;;;;;;5034335;28;20491;-67
2023/05/01 09:12:34;;;;;;;2.85;1.20;;;19.00;78.10;;;;;;5017710;28;20029;-67
2023/05/01 09:15:01;;;;;;;3.25;1.00;;;19.00;78.10;;;;;;5034276;28;20025;-67
2023/05/01 09:17:27;;;;;;;3.75;1.55;;;19.00;78.10;;;;;;5034211;28;20039;-67
2023/05/01 09:19:53;;;;;;;2.08;1.42;;;19.00;78.00;;;;;;5034093;28;20021;-67
2023/05/01 09:22:19;;;;;;;6.45;2.15;;;19.00;78.00;;;;;;5035399;28;20026;-67
2023/05/01 09:24:45;;;;;;;2.33;1.02;;;19.00;78.00;;;;;;5034187;28;20026;-67
2023/05/01 09:27:12;;;;;;;3.75;1.30;;;19.00;78.00;;;;;;5017350;28;20108;-67
2023/05/01 09:29:41;;;;;;;10.40;1.40;;;19.00;78.00;;;;;;5034316;28;20044;-67
2023/05/01 09:32:20;;;;;;;2.28;1.27;;;18.90;77.90;;;;;;5033939;28;20033;-67
2023/05/01 09:34:46;;;;;;;1.98;1.25;;;19.00;77.70;;;;;;5034080;28;20049;-67
2023/05/01 09:37:34;;;;;;;3.00;1.50;;;19.00;77.50;;;;;;5033848;28;20041;-67
2023/05/01 09:40:15;;;;;;;2.70;1.20;;;19.00;77.60;;;;;;5033602;28;20108;-66
2023/05/01 09:42:50;;;;;;;4.60;1.17;;;19.00;77.60;;;;;;5034831;28;20040;-66
2023/05/01 09:45:17;;;;;;;3.42;1.58;;;19.00;77.60;;;;;;5033750;28;20018;-67
2023/05/01 09:47:44;;;;;;;5.88;1.50;;;19.00;77.60;;;;;;5033829;28;20025;-67
2023/05/01 09:50:19;;;;;;;4.55;1.27;;;19.00;77.60;;;;;;5034788;28;20531;-67
2023/05/01 09:52:50;;;;;;;3.63;1.30;;;18.90;77.50;;;;;;5018488;28;20032;-67
2023/05/01 09:55:17;;;;;;;3.53;1.30;;;19.00;77.60;;;;;;5033530;28;20041;-66
2023/05/01 09:57:45;;;;;;;3.83;1.45;;;18.90;77.50;;;;;;5033118;28;20425;-67
2023/05/01 10:00:13;;;;;;;2.45;1.27;;;18.90;77.50;;;;;;5017041;28;20021;-67
2023/05/01 10:02:40;;;;;;;3.22;1.30;;;18.90;77.50;;;;;;5033490;28;20043;-67
2023/05/01 10:05:07;;;;;;;3.03;1.38;;;18.90;77.50;;;;;;5033441;28;20024;-67
2023/05/01 10:07:33;;;;;;;2.90;1.23;;;18.90;77.50;;;;;;5033951;28;20033;-66
2023/05/01 10:10:15;;;;;;;3.22;1.30;;;18.90;78.60;;;;;;5033190;28;20021;-66
2023/05/01 10:12:41;;;;;;;6.57;1.30;;;19.00;77.80;;;;;;5033177;28;20034;-66
2023/05/01 10:15:07;;;;;;;9.93;1.35;;;19.00;77.80;;;;;;5033264;28;20026;-66
2023/05/01 10:17:33;;;;;;;4.63;1.42;;;19.00;77.50;;;;;;5033266;28;20025;-67
2023/05/01 10:19:58;;;;;;;9.35;1.65;;;19.00;77.60;;;;;;5032403;28;20100;-71
2023/05/01 10:22:25;;;;;;;10.95;1.85;;;18.90;72.70;;;;;;5032223;28;20091;-69
2023/05/01 10:24:51;;;;;;;10.13;2.20;;;18.70;71.10;;;;;;5028654;28;20025;-69
2023/05/01 10:27:16;;;;;;;7.15;1.50;;;18.60;68.70;;;;;;5022843;28;20049;-69
2023/05/01 10:29:43;;;;;;;11.02;2.05;;;18.40;68.80;;;;;;5013810;28;20029;-71
2023/05/01 10:32:09;;;;;;;11.27;1.50;;;18.40;67.90;;;;;;5013597;28;20034;-70
2023/05/01 10:34:39;;;;;;;9.48;1.85;;;18.30;67.00;;;;;;5014744;28;20030;-67
2023/05/01 10:37:17;;;;;;;10.43;1.80;;;18.20;66.50;;;;;;5015419;28;20092;-67
2023/05/01 10:39:42;;;;;;;10.48;1.90;;;18.10;66.00;;;;;;5023788;28;20033;-67
2023/05/01 10:42:13;;;;;;;13.93;2.00;;;18.00;65.10;;;;;;5014058;28;20026;-67
2023/05/01 10:44:39;;;;;;;8.90;1.67;;;17.90;65.10;;;;;;5013986;28;20033;-67
2023/05/01 10:47:24;;;;;;;9.85;1.48;;;17.90;64.40;;;;;;5014133;28;20026;-67
2023/05/01 10:50:09;;;;;;;8.30;1.80;;;17.80;64.00;;;;;;5013981;28;20050;-67
2023/05/01 10:53:13;;;;;;;8.10;1.90;;;17.80;62.90;;;;;;5012834;28;20045;-67
2023/05/01 10:55:46;;;;;;;7.45;1.92;;;17.70;63.20;;;;;;5013590;28;20022;-67
2023/05/01 10:58:12;;;;;;;9.32;2.10;;;17.70;62.20;;;;;;5013452;28;20041;-67
2023/05/01 11:00:38;;;;;;;5.85;1.35;;;17.60;62.30;;;;;;5012649;28;20037;-67
2023/05/01 11:03:23;;;;;;;8.57;1.77;;;17.50;62.50;;;;;;5012481;28;20026;-66
2023/05/01 11:06:03;;;;;;;8.70;1.80;;;17.50;62.90;;;;;;5013802;28;20213;-66
2023/05/01 11:08:32;;;;;;;7.95;1.38;;;17.50;62.70;;;;;;5013548;28;20049;-66
2023/05/01 11:11:18;;;;;;;7.63;1.75;;;17.50;62.40;;;;;;5012927;28;20030;-66
2023/05/01 11:14:03;;;;;;;9.52;1.70;;;17.50;62.70;;;;;;5051208;28;20048;-65
2023/05/01 11:16:43;;;;;;;17.42;1.98;;;17.40;62.30;;;;;;5050831;28;20044;-69
2023/05/01 11:19:21;;;;;;;9.85;1.92;;;17.50;64.20;;;;;;5050787;28;20159;-68
2023/05/01 11:21:47;;;;;;;9.98;1.67;;;17.60;62.70;;;;;;5051075;28;20032;-68
2023/05/01 11:24:13;;;;;;;6.40;1.48;;;17.50;62.20;;;;;;5033814;28;20037;-68
2023/05/01 11:26:40;;;;;;;9.63;1.83;;;17.40;62.20;;;;;;5050922;28;20434;-69
2023/05/01 11:29:06;;;;;;;8.90;1.50;;;17.40;62.30;;;;;;5050793;28;20159;-69
2023/05/01 11:31:32;;;;;;;6.05;1.90;;;17.40;62.80;;;;;;5034150;28;20427;-68
2023/05/01 11:33:58;;;;;;;9.70;1.77;;;17.50;62.10;;;;;;5034031;28;20037;-68
2023/05/01 11:36:25;;;;;;;5.75;1.40;;;17.40;62.00;;;;;;5031551;28;20045;-68
2023/05/01 11:38:52;;;;;;;3.78;1.10;;;17.40;62.00;;;;;;5067244;28;20097;-69
2023/05/01 11:41:20;;;;;;;8.70;1.60;;;17.40;62.60;;;;;;5034496;28;20144;-68
2023/05/01 11:43:52;;;;;;;7.32;1.67;;;17.40;62.60;;;;;;5051023;28;20086;-68
2023/05/01 11:46:31;;;;;;;6.60;1.55;;;17.30;62.00;;;;;;5034596;28;20025;-68
2023/05/01 11:48:58;;;;;;;5.53;1.40;;;17.40;62.60;;;;;;5033446;28;20039;-68
2023/05/01 11:51:25;;;;;;;9.43;1.48;;;17.30;62.20;;;;;;5030085;28;20037;-68
2023/05/01 11:54:00;;;;;;;10.25;1.80;;;17.30;62.30;;;;;;5014614;28;20026;-68
2023/05/01 11:56:26;;;;;;;7.28;1.60;;;17.30;62.80;;;;;;5012563;28;20046;-68
2023/05/01 11:58:53;;;;;;;6.57;1.70;;;17.30;62.70;;;;;;5012714;28;20025;-68
2023/05/01 12:01:20;;;;;;;12.82;1.95;;;17.30;62.90;;;;;;5011675;28;20296;-68
2023/05/01 12:03:45;;;;;;;5.95;1.40;;;17.30;63.30;;;;;;5011743;28;20398;-68
2023/05/01 12:06:14;;;;;;;7.03;1.95;;;17.30;63.40;;;;;;5012484;28;20065;-67
2023/05/01 12:08:46;;;;;;;8.13;1.70;;;17.30;63.80;;;;;;5011363;28;20022;-67
2023/05/01 12:11:11;;;;;;;6.07;1.95;;;17.30;63.30;;;;;;5030795;28;20029;-67
2023/05/01 12:13:38;;;;;;;8.75;2.33;;;17.20;63.50;;;;;;5031304;28;20029;-67
2023/05/01 12:16:04;;;;;;;7.38;2.17;;;17.30;64.10;;;;;;5031114;28;20065;-68
2023/05/01 12:18:30;;;;;;;6.22;2.38;;;17.30;64.60;;;;;;5032125;28;20499;-67
2023/05/01 12:20:55;;;;;;;10.20;2.45;;;17.30;64.70;;;;;;5029818;28;20026;-68
2023/05/01 12:23:39;;;;;;;9.10;2.40;;;17.30;64.30;;;;;;5031656;28;20022;-68
2023/05/01 12:26:18;;;;;;;8.55;2.45;;;17.30;64.70;;;;;;5030706;28;20021;-68
2023/05/01 12:28:57;;;;;;;7.38;2.95;;;17.40;65.30;;;;;;5014843;28;20057;-68
2023/05/01 12:31:23;;;;;;;10.63;2.53;;;17.40;65.90;;;;;;5033869;28;20029;-68
2023/05/01 12:33:59;;;;;;;9.48;2.45;;;17.40;65.90;;;;;;5036232;28;20022;-68
2023/05/01 12:36:27;;;;;;;8.50;2.78;;;17.50;65.80;;;;;;5035009;28;20036;-68
2023/05/01 12:39:03;;;;;;;8.00;2.70;;;17.50;66.80;;;;;;5028409;28;20029;-68
2023/05/01 12:41:47;;;;;;;6.90;2.38;;;17.50;66.70;;;;;;5020167;28;20053;-68
2023/05/01 12:44:23;;;;;;;8.35;2.15;;;17.50;65.90;;;;;;5013682;28;20029;-68
2023/05/01 12:46:59;;;;;;;7.60;2.90;;;17.50;65.80;;;;;;5015035;28;20101;-68
2023/05/01 12:49:24;;;;;;;9.70;3.05;;;17.50;67.50;;;;;;5015840;28;20053;-67